sensor_id;sensor_type;location;lat;lon;timestamp;temperature;humidity
81140;SHT31;70624;51.978;5.656;2023-06-22T00:01:23;21.7;62.5
81140;SHT31;70624;51.978;5.656;2023-06-22T00:03:51;21.7;63.5
81140;SHT31;70624;51.978;5.656;2023-06-22T00:06:20;21.7;62.9
81140;SHT31;70624;51.978;5.656;2023-06-22T00:08:48;21.7;63.2
81140;SHT31;70624;51.978;5.656;2023-06-22T00:11:18;21.6;63.5
81140;SHT31;70624;51.978;5.656;2023-06-22T00:13:47;21.6;63.5
81140;SHT31;70624;51.978;5.656;2023-06-22T00:16:17;21.6;63.2
81140;SHT31;70624;51.978;5.656;2023-06-22T00:18:45;21.6;62.8
81140;SHT31;70624;51.978;5.656;2023-06-22T00:21:15;21.5;64.0
81140;SHT31;70624;51.978;5.656;2023-06-22T00:23:47;21.5;63.4
81140;SHT31;70624;51.978;5.656;2023-06-22T00:26:16;21.5;63.7
81140;SHT31;70624;51.978;5.656;2023-06-22T00:28:44;21.4;63.0
81140;SHT31;70624;51.978;5.656;2023-06-22T00:31:13;21.4;63.2
81140;SHT31;70624;51.978;5.656;2023-06-22T00:33:41;21.4;63.8
81140;SHT31;70624;51.978;5.656;2023-06-22T00:36:10;21.3;63.4
81140;SHT31;70624;51.978;5.656;2023-06-22T00:38:42;21.3;63.5
81140;SHT31;70624;51.978;5.656;2023-06-22T00:41:10;21.2;63.3
81140;SHT31;70624;51.978;5.656;2023-06-22T00:43:41;21.2;63.7
81140;SHT31;70624;51.978;5.656;2023-06-22T00:46:10;21.2;63.0
81140;SHT31;70624;51.978;5.656;2023-06-22T00:48:40;21.1;63.8
81140;SHT31;70624;51.978;5.656;2023-06-22T00:51:10;21.1;64.6
81140;SHT31;70624;51.978;5.656;2023-06-22T00:53:39;21.1;64.1
81140;SHT31;70624;51.978;5.656;2023-06-22T00:56:12;21.0;64.1
81140;SHT31;70624;51.978;5.656;2023-06-22T00:58:40;21.0;63.7
81140;SHT31;70624;51.978;5.656;2023-06-22T01:01:09;21.0;64.7
81140;SHT31;70624;51.978;5.656;2023-06-22T01:03:39;21.0;65.3
81140;SHT31;70624;51.978;5.656;2023-06-22T01:06:12;20.9;64.5
81140;SHT31;70624;51.978;5.656;2023-06-22T01:08:51;20.9;64.4
81140;SHT31;70624;51.978;5.656;2023-06-22T01:11:26;20.9;64.7
81140;SHT31;70624;51.978;5.656;2023-06-22T01:14:04;20.9;64.7
81140;SHT31;70624;51.978;5.656;2023-06-22T01:16:37;20.8;64.8
81140;SHT31;70624;51.978;5.656;2023-06-22T01:19:20;20.8;65.5
81140;SHT31;70624;51.978;5.656;2023-06-22T01:21:55;20.7;65.2
81140;SHT31;70624;51.978;5.656;2023-06-22T01:24:27;20.7;65.5
81140;SHT31;70624;51.978;5.656;2023-06-22T01:27:09;20.7;65.6
81140;SHT31;70624;51.978;5.656;2023-06-22T01:29:40;20.6;65.1
81140;SHT31;70624;51.978;5.656;2023-06-22T01:32:11;20.6;65.5
81140;SHT31;70624;51.978;5.656;2023-06-22T01:34:41;20.6;65.4
81140;SHT31;70624;51.978;5.656;2023-06-22T01:37:10;20.5;65.8
81140;SHT31;70624;51.978;5.656;2023-06-22T01:39:39;20.5;66.1
81140;SHT31;70624;51.978;5.656;2023-06-22T01:42:11;20.5;66.0
81140;SHT31;70624;51.978;5.656;2023-06-22T01:44:42;20.5;65.8
81140;SHT31;70624;51.978;5.656;2023-06-22T01:47:11;20.4;65.6
81140;SHT31;70624;51.978;5.656;2023-06-22T01:49:40;20.4;65.8
81140;SHT31;70624;51.978;5.656;2023-06-22T01:52:11;20.4;65.5
81140;SHT31;70624;51.978;5.656;2023-06-22T01:54:39;20.3;65.4
81140;SHT31;70624;51.978;5.656;2023-06-22T01:57:08;20.3;66.4
81140;SHT31;70624;51.978;5.656;2023-06-22T01:59:42;20.3;66.2
81140;SHT31;70624;51.978;5.656;2023-06-22T02:02:16;20.2;66.7
81140;SHT31;70624;51.978;5.656;2023-06-22T02:04:57;20.2;66.6
81140;SHT31;70624;51.978;5.656;2023-06-22T02:07:31;20.2;66.7
81140;SHT31;70624;51.978;5.656;2023-06-22T02:10:02;20.2;66.7
81140;SHT31;70624;51.978;5.656;2023-06-22T02:12:34;20.1;66.7
81140;SHT31;70624;51.978;5.656;2023-06-22T02:15:03;20.1;67.4
81140;SHT31;70624;51.978;5.656;2023-06-22T02:17:33;20.1;67.0
81140;SHT31;70624;51.978;5.656;2023-06-22T02:20:03;20.1;66.7
81140;SHT31;70624;51.978;5.656;2023-06-22T02:22:34;20.1;66.9
81140;SHT31;70624;51.978;5.656;2023-06-22T02:25:03;20.1;67.0
81140;SHT31;70624;51.978;5.656;2023-06-22T02:27:32;20.0;67.6
81140;SHT31;70624;51.978;5.656;2023-06-22T02:30:00;20.0;67.2
81140;SHT31;70624;51.978;5.656;2023-06-22T02:32:29;20.0;67.1
81140;SHT31;70624;51.978;5.656;2023-06-22T02:35:00;20.0;67.7
81140;SHT31;70624;51.978;5.656;2023-06-22T02:37:32;19.9;67.4
81140;SHT31;70624;51.978;5.656;2023-06-22T02:40:00;19.9;67.4
81140;SHT31;70624;51.978;5.656;2023-06-22T02:42:32;19.9;67.2
81140;SHT31;70624;51.978;5.656;2023-06-22T02:45:00;19.9;68.1
81140;SHT31;70624;51.978;5.656;2023-06-22T02:47:29;19.9;67.6
81140;SHT31;70624;51.978;5.656;2023-06-22T02:49:57;19.8;67.7
81140;SHT31;70624;51.978;5.656;2023-06-22T02:52:28;19.8;67.3
81140;SHT31;70624;51.978;5.656;2023-06-22T02:54:57;19.8;67.9
81140;SHT31;70624;51.978;5.656;2023-06-22T02:57:25;19.7;68.3
81140;SHT31;70624;51.978;5.656;2023-06-22T02:59:54;19.7;67.7
81140;SHT31;70624;51.978;5.656;2023-06-22T03:02:23;19.7;67.8
81140;SHT31;70624;51.978;5.656;2023-06-22T03:04:52;19.7;67.9
81140;SHT31;70624;51.978;5.656;2023-06-22T03:07:21;19.6;67.9
81140;SHT31;70624;51.978;5.656;2023-06-22T03:09:49;19.6;68.0
81140;SHT31;70624;51.978;5.656;2023-06-22T03:12:18;19.6;68.4
81140;SHT31;70624;51.978;5.656;2023-06-22T03:14:46;19.6;68.5
81140;SHT31;70624;51.978;5.656;2023-06-22T03:17:14;19.6;68.6
81140;SHT31;70624;51.978;5.656;2023-06-22T03:19:43;19.5;68.9
81140;SHT31;70624;51.978;5.656;2023-06-22T03:22:11;19.5;69.4
81140;SHT31;70624;51.978;5.656;2023-06-22T03:24:41;19.5;69.5
81140;SHT31;70624;51.978;5.656;2023-06-22T03:27:09;19.5;69.3
81140;SHT31;70624;51.978;5.656;2023-06-22T03:29:38;19.5;69.3
81140;SHT31;70624;51.978;5.656;2023-06-22T03:32:07;19.5;68.9
81140;SHT31;70624;51.978;5.656;2023-06-22T03:34:35;19.5;68.9
81140;SHT31;70624;51.978;5.656;2023-06-22T03:37:04;19.5;69.2
81140;SHT31;70624;51.978;5.656;2023-06-22T03:39:33;19.5;69.5
81140;SHT31;70624;51.978;5.656;2023-06-22T03:42:01;19.5;69.1
81140;SHT31;70624;51.978;5.656;2023-06-22T03:44:29;19.4;69.2
81140;SHT31;70624;51.978;5.656;2023-06-22T03:46:58;19.4;69.3
81140;SHT31;70624;51.978;5.656;2023-06-22T03:49:28;19.4;69.4
81140;SHT31;70624;51.978;5.656;2023-06-22T03:51:56;19.4;69.2
81140;SHT31;70624;51.978;5.656;2023-06-22T03:54:25;19.4;69.4
81140;SHT31;70624;51.978;5.656;2023-06-22T03:56:54;19.4;69.1
81140;SHT31;70624;51.978;5.656;2023-06-22T03:59:22;19.4;69.5
81140;SHT31;70624;51.978;5.656;2023-06-22T04:01:51;19.4;69.1
81140;SHT31;70624;51.978;5.656;2023-06-22T04:04:20;19.4;69.5
81140;SHT31;70624;51.978;5.656;2023-06-22T04:06:51;19.4;69.9
81140;SHT31;70624;51.978;5.656;2023-06-22T04:09:19;19.4;68.9
81140;SHT31;70624;51.978;5.656;2023-06-22T04:11:48;19.4;69.2
81140;SHT31;70624;51.978;5.656;2023-06-22T04:14:16;19.3;69.3
81140;SHT31;70624;51.978;5.656;2023-06-22T04:16:46;19.3;69.4
81140;SHT31;70624;51.978;5.656;2023-06-22T04:19:15;19.3;69.8
81140;SHT31;70624;51.978;5.656;2023-06-22T04:21:44;19.3;70.1
81140;SHT31;70624;51.978;5.656;2023-06-22T04:24:15;19.2;70.1
81140;SHT31;70624;51.978;5.656;2023-06-22T04:26:43;19.2;70.4
81140;SHT31;70624;51.978;5.656;2023-06-22T04:29:13;19.2;70.7
81140;SHT31;70624;51.978;5.656;2023-06-22T04:31:43;19.2;71.0
81140;SHT31;70624;51.978;5.656;2023-06-22T04:34:17;19.3;71.0
81140;SHT31;70624;51.978;5.656;2023-06-22T04:36:45;19.3;71.0
81140;SHT31;70624;51.978;5.656;2023-06-22T04:39:15;19.3;71.5
81140;SHT31;70624;51.978;5.656;2023-06-22T04:41:45;19.4;71.5
81140;SHT31;70624;51.978;5.656;2023-06-22T04:44:15;19.4;71.7
81140;SHT31;70624;51.978;5.656;2023-06-22T04:46:50;19.5;71.6
81140;SHT31;70624;51.978;5.656;2023-06-22T04:49:21;19.6;70.9
81140;SHT31;70624;51.978;5.656;2023-06-22T04:51:55;19.7;70.6
81140;SHT31;70624;51.978;5.656;2023-06-22T04:54:23;19.7;70.4
81140;SHT31;70624;51.978;5.656;2023-06-22T04:56:51;19.8;70.5
81140;SHT31;70624;51.978;5.656;2023-06-22T04:59:22;19.8;70.5
81140;SHT31;70624;51.978;5.656;2023-06-22T05:01:55;19.9;70.7
81140;SHT31;70624;51.978;5.656;2023-06-22T05:04:25;20.0;70.4
81140;SHT31;70624;51.978;5.656;2023-06-22T05:24:35;22.0;63.5
81140;SHT31;70624;51.978;5.656;2023-06-22T05:27:04;21.9;65.0
81140;SHT31;70624;51.978;5.656;2023-06-22T05:29:32;22.0;65.8
81140;SHT31;70624;51.978;5.656;2023-06-22T05:32:03;22.0;64.2
81140;SHT31;70624;51.978;5.656;2023-06-22T05:34:32;22.1;64.3
81140;SHT31;70624;51.978;5.656;2023-06-22T05:37:01;22.1;64.5
81140;SHT31;70624;51.978;5.656;2023-06-22T05:39:30;22.1;64.1
81140;SHT31;70624;51.978;5.656;2023-06-22T05:41:58;22.2;64.3
81140;SHT31;70624;51.978;5.656;2023-06-22T05:44:27;22.2;63.5
81140;SHT31;70624;51.978;5.656;2023-06-22T05:46:55;22.2;64.0
81140;SHT31;70624;51.978;5.656;2023-06-22T05:49:25;22.2;64.2
81140;SHT31;70624;51.978;5.656;2023-06-22T05:51:56;22.3;63.3
81140;SHT31;70624;51.978;5.656;2023-06-22T05:56:08;22.9;62.2
81140;SHT31;70624;51.978;5.656;2023-06-22T05:58:37;23.0;61.0
81140;SHT31;70624;51.978;5.656;2023-06-22T06:01:05;23.0;61.2
81140;SHT31;70624;51.978;5.656;2023-06-22T06:03:33;23.0;62.5
81140;SHT31;70624;51.978;5.656;2023-06-22T06:06:07;23.0;61.4
81140;SHT31;70624;51.978;5.656;2023-06-22T06:08:37;23.1;61.5
81140;SHT31;70624;51.978;5.656;2023-06-22T06:11:06;23.1;60.8
81140;SHT31;70624;51.978;5.656;2023-06-22T06:13:34;23.2;60.3
81140;SHT31;70624;51.978;5.656;2023-06-22T06:16:03;23.2;60.5
81140;SHT31;70624;51.978;5.656;2023-06-22T06:19:15;23.6;59.3
81140;SHT31;70624;51.978;5.656;2023-06-22T06:21:44;23.7;59.1
81140;SHT31;70624;51.978;5.656;2023-06-22T06:24:14;23.7;59.1
81140;SHT31;70624;51.978;5.656;2023-06-22T06:26:44;23.8;58.9
81140;SHT31;70624;51.978;5.656;2023-06-22T06:29:13;23.8;60.0
81140;SHT31;70624;51.978;5.656;2023-06-22T06:31:42;23.9;59.4
81140;SHT31;70624;51.978;5.656;2023-06-22T06:34:11;23.9;59.8
81140;SHT31;70624;51.978;5.656;2023-06-22T06:36:39;23.9;59.4
81140;SHT31;70624;51.978;5.656;2023-06-22T06:39:08;24.0;58.8
81140;SHT31;70624;51.978;5.656;2023-06-22T06:41:37;24.0;60.0
81140;SHT31;70624;51.978;5.656;2023-06-22T06:44:05;24.1;59.6
81140;SHT31;70624;51.978;5.656;2023-06-22T06:46:34;24.1;59.9
81140;SHT31;70624;51.978;5.656;2023-06-22T06:49:02;24.2;58.5
81140;SHT31;70624;51.978;5.656;2023-06-22T06:51:30;24.2;58.7
81140;SHT31;70624;51.978;5.656;2023-06-22T06:53:59;24.2;58.8
81140;SHT31;70624;51.978;5.656;2023-06-22T06:56:27;24.3;58.9
81140;SHT31;70624;51.978;5.656;2023-06-22T06:58:57;24.3;58.9
81140;SHT31;70624;51.978;5.656;2023-06-22T07:01:25;24.4;58.5
81140;SHT31;70624;51.978;5.656;2023-06-22T07:03:59;24.5;60.0
81140;SHT31;70624;51.978;5.656;2023-06-22T07:06:27;24.5;58.2
81140;SHT31;70624;51.978;5.656;2023-06-22T07:08:58;24.7;58.2
81140;SHT31;70624;51.978;5.656;2023-06-22T07:11:27;24.8;57.4
81140;SHT31;70624;51.978;5.656;2023-06-22T07:13:55;24.9;56.8
81140;SHT31;70624;51.978;5.656;2023-06-22T07:16:24;25.0;56.7
81140;SHT31;70624;51.978;5.656;2023-06-22T07:18:54;25.0;56.7
81140;SHT31;70624;51.978;5.656;2023-06-22T07:21:22;25.1;57.3
81140;SHT31;70624;51.978;5.656;2023-06-22T07:23:50;25.2;55.3
81140;SHT31;70624;51.978;5.656;2023-06-22T07:26:20;25.4;54.2
81140;SHT31;70624;51.978;5.656;2023-06-22T07:28:48;25.5;53.1
81140;SHT31;70624;51.978;5.656;2023-06-22T07:31:17;25.6;53.7
81140;SHT31;70624;51.978;5.656;2023-06-22T07:33:45;25.7;52.9
81140;SHT31;70624;51.978;5.656;2023-06-22T07:36:13;25.8;52.4
81140;SHT31;70624;51.978;5.656;2023-06-22T07:38:42;25.9;53.8
81140;SHT31;70624;51.978;5.656;2023-06-22T07:41:10;26.0;52.0
81140;SHT31;70624;51.978;5.656;2023-06-22T07:43:39;26.2;52.0
81140;SHT31;70624;51.978;5.656;2023-06-22T07:46:07;26.3;52.4
81140;SHT31;70624;51.978;5.656;2023-06-22T07:48:38;26.4;50.2
81140;SHT31;70624;51.978;5.656;2023-06-22T07:51:08;26.5;51.2
81140;SHT31;70624;51.978;5.656;2023-06-22T07:53:39;26.6;50.2
81140;SHT31;70624;51.978;5.656;2023-06-22T07:56:10;26.6;50.4
81140;SHT31;70624;51.978;5.656;2023-06-22T07:58:39;26.7;49.9
81140;SHT31;70624;51.978;5.656;2023-06-22T08:01:07;26.8;48.3
81140;SHT31;70624;51.978;5.656;2023-06-22T08:03:37;26.8;48.9
81140;SHT31;70624;51.978;5.656;2023-06-22T08:06:08;26.9;48.9
81140;SHT31;70624;51.978;5.656;2023-06-22T08:08:37;26.9;48.7
81140;SHT31;70624;51.978;5.656;2023-06-22T08:11:06;27.0;48.6
81140;SHT31;70624;51.978;5.656;2023-06-22T08:13:34;27.0;48.9
81140;SHT31;70624;51.978;5.656;2023-06-22T08:16:03;27.1;48.9
81140;SHT31;70624;51.978;5.656;2023-06-22T08:18:35;27.1;48.1
81140;SHT31;70624;51.978;5.656;2023-06-22T08:21:03;27.1;47.7
81140;SHT31;70624;51.978;5.656;2023-06-22T08:23:32;27.1;48.1
81140;SHT31;70624;51.978;5.656;2023-06-22T08:26:01;27.2;48.3
81140;SHT31;70624;51.978;5.656;2023-06-22T08:28:29;27.2;48.2
81140;SHT31;70624;51.978;5.656;2023-06-22T08:30:59;27.2;48.5
81140;SHT31;70624;51.978;5.656;2023-06-22T08:33:28;27.2;47.7
81140;SHT31;70624;51.978;5.656;2023-06-22T08:35:58;27.2;47.1
81140;SHT31;70624;51.978;5.656;2023-06-22T08:38:27;27.2;47.5
81140;SHT31;70624;51.978;5.656;2023-06-22T08:40:55;27.1;48.2
81140;SHT31;70624;51.978;5.656;2023-06-22T08:43:24;27.1;48.8
81140;SHT31;70624;51.978;5.656;2023-06-22T08:45:52;27.1;48.2
81140;SHT31;70624;51.978;5.656;2023-06-22T08:48:21;27.1;48.4
81140;SHT31;70624;51.978;5.656;2023-06-22T08:50:49;27.0;48.1
81140;SHT31;70624;51.978;5.656;2023-06-22T08:53:18;27.0;47.8
81140;SHT31;70624;51.978;5.656;2023-06-22T08:55:47;27.0;48.3
81140;SHT31;70624;51.978;5.656;2023-06-22T08:58:17;27.1;48.3
81140;SHT31;70624;51.978;5.656;2023-06-22T09:00:48;27.1;49.0
81140;SHT31;70624;51.978;5.656;2023-06-22T09:03:19;27.1;48.9
81140;SHT31;70624;51.978;5.656;2023-06-22T09:05:53;27.1;48.5
81140;SHT31;70624;51.978;5.656;2023-06-22T09:08:22;27.1;47.9
81140;SHT31;70624;51.978;5.656;2023-06-22T09:10:50;27.2;48.0
81140;SHT31;70624;51.978;5.656;2023-06-22T09:13:18;27.2;48.1
81140;SHT31;70624;51.978;5.656;2023-06-22T09:15:48;27.3;48.4
81140;SHT31;70624;51.978;5.656;2023-06-22T09:18:17;27.4;49.0
81140;SHT31;70624;51.978;5.656;2023-06-22T09:20:45;27.5;47.0
81140;SHT31;70624;51.978;5.656;2023-06-22T09:23:15;27.5;46.2
81140;SHT31;70624;51.978;5.656;2023-06-22T09:28:36;28.5;42.7
81140;SHT31;70624;51.978;5.656;2023-06-22T09:31:05;28.3;44.2
81140;SHT31;70624;51.978;5.656;2023-06-22T09:33:33;28.2;44.3
81140;SHT31;70624;51.978;5.656;2023-06-22T09:36:01;28.3;43.0
81140;SHT31;70624;51.978;5.656;2023-06-22T09:38:31;28.2;42.5
81140;SHT31;70624;51.978;5.656;2023-06-22T09:41:00;28.2;43.6
81140;SHT31;70624;51.978;5.656;2023-06-22T09:43:30;28.2;42.2
81140;SHT31;70624;51.978;5.656;2023-06-22T09:46:01;28.2;44.2
81140;SHT31;70624;51.978;5.656;2023-06-22T09:48:30;28.2;44.0
81140;SHT31;70624;51.978;5.656;2023-06-22T09:51:00;28.2;43.1
81140;SHT31;70624;51.978;5.656;2023-06-22T09:53:28;28.1;42.5
81140;SHT31;70624;51.978;5.656;2023-06-22T09:55:57;28.0;42.8
81140;SHT31;70624;51.978;5.656;2023-06-22T09:58:26;27.9;45.3
81140;SHT31;70624;51.978;5.656;2023-06-22T10:00:55;27.8;43.4
81140;SHT31;70624;51.978;5.656;2023-06-22T10:03:23;27.8;43.6
81140;SHT31;70624;51.978;5.656;2023-06-22T10:05:52;27.7;42.8
81140;SHT31;70624;51.978;5.656;2023-06-22T10:08:21;27.6;43.2
81140;SHT31;70624;51.978;5.656;2023-06-22T10:10:49;27.5;43.8
81140;SHT31;70624;51.978;5.656;2023-06-22T10:13:18;27.5;44.6
81140;SHT31;70624;51.978;5.656;2023-06-22T10:15:46;27.4;44.7
81140;SHT31;70624;51.978;5.656;2023-06-22T10:18:18;27.3;45.0
81140;SHT31;70624;51.978;5.656;2023-06-22T10:20:48;27.3;45.0
81140;SHT31;70624;51.978;5.656;2023-06-22T10:23:19;27.3;46.0
81140;SHT31;70624;51.978;5.656;2023-06-22T10:25:48;27.2;46.0
81140;SHT31;70624;51.978;5.656;2023-06-22T10:28:17;27.2;45.4
81140;SHT31;70624;51.978;5.656;2023-06-22T10:30:45;27.2;46.2
81140;SHT31;70624;51.978;5.656;2023-06-22T10:33:14;27.2;45.5
81140;SHT31;70624;51.978;5.656;2023-06-22T10:35:42;27.2;45.8
81140;SHT31;70624;51.978;5.656;2023-06-22T10:38:13;27.1;47.1
81140;SHT31;70624;51.978;5.656;2023-06-22T10:40:41;27.0;46.7
81140;SHT31;70624;51.978;5.656;2023-06-22T10:43:10;27.0;46.8
81140;SHT31;70624;51.978;5.656;2023-06-22T10:45:38;27.0;47.1
81140;SHT31;70624;51.978;5.656;2023-06-22T10:48:07;27.0;47.1
81140;SHT31;70624;51.978;5.656;2023-06-22T10:50:35;26.9;46.6
81140;SHT31;70624;51.978;5.656;2023-06-22T10:53:04;26.9;47.0
81140;SHT31;70624;51.978;5.656;2023-06-22T10:55:32;26.9;48.5
81140;SHT31;70624;51.978;5.656;2023-06-22T10:58:01;26.9;49.5
81140;SHT31;70624;51.978;5.656;2023-06-22T11:00:29;26.9;47.2
81140;SHT31;70624;51.978;5.656;2023-06-22T11:02:58;26.9;48.3
81140;SHT31;70624;51.978;5.656;2023-06-22T11:05:26;26.9;47.4
81140;SHT31;70624;51.978;5.656;2023-06-22T11:07:55;26.8;47.5
81140;SHT31;70624;51.978;5.656;2023-06-22T11:10:23;26.8;48.8
81140;SHT31;70624;51.978;5.656;2023-06-22T11:12:54;26.8;48.0
81140;SHT31;70624;51.978;5.656;2023-06-22T11:15:24;26.7;48.5
81140;SHT31;70624;51.978;5.656;2023-06-22T11:17:52;26.7;48.9
81140;SHT31;70624;51.978;5.656;2023-06-22T11:20:21;26.7;48.2
81140;SHT31;70624;51.978;5.656;2023-06-22T11:22:49;26.6;49.0
81140;SHT31;70624;51.978;5.656;2023-06-22T11:25:18;26.6;49.7
81140;SHT31;70624;51.978;5.656;2023-06-22T11:27:46;26.6;51.7
81140;SHT31;70624;51.978;5.656;2023-06-22T11:30:15;26.6;52.8
81140;SHT31;70624;51.978;5.656;2023-06-22T11:32:43;26.5;51.8
81140;SHT31;70624;51.978;5.656;2023-06-22T11:35:13;26.5;52.3
81140;SHT31;70624;51.978;5.656;2023-06-22T11:37:42;26.5;55.6
81140;SHT31;70624;51.978;5.656;2023-06-22T11:40:11;26.5;55.5
81140;SHT31;70624;51.978;5.656;2023-06-22T11:42:40;26.5;55.6
81140;SHT31;70624;51.978;5.656;2023-06-22T11:45:09;26.5;52.7
81140;SHT31;70624;51.978;5.656;2023-06-22T11:47:37;26.5;53.6
81140;SHT31;70624;51.978;5.656;2023-06-22T11:50:07;26.5;55.5
81140;SHT31;70624;51.978;5.656;2023-06-22T11:52:35;26.6;52.8
81140;SHT31;70624;51.978;5.656;2023-06-22T11:55:05;26.6;53.2
81140;SHT31;70624;51.978;5.656;2023-06-22T11:57:36;26.6;52.0
81140;SHT31;70624;51.978;5.656;2023-06-22T12:00:05;26.6;53.3
81140;SHT31;70624;51.978;5.656;2023-06-22T12:02:40;26.5;54.9
81140;SHT31;70624;51.978;5.656;2023-06-22T12:05:10;26.5;54.9
81140;SHT31;70624;51.978;5.656;2023-06-22T12:07:39;26.4;57.1
81140;SHT31;70624;51.978;5.656;2023-06-22T12:10:08;26.3;58.3
81140;SHT31;70624;51.978;5.656;2023-06-22T12:12:37;26.3;58.7
81140;SHT31;70624;51.978;5.656;2023-06-22T12:15:06;26.1;57.0
81140;SHT31;70624;51.978;5.656;2023-06-22T12:17:35;26.0;60.3
81140;SHT31;70624;51.978;5.656;2023-06-22T12:20:04;25.8;63.5
81140;SHT31;70624;51.978;5.656;2023-06-22T12:22:34;25.6;60.6
81140;SHT31;70624;51.978;5.656;2023-06-22T12:25:04;25.5;62.1
81140;SHT31;70624;51.978;5.656;2023-06-22T12:27:35;25.4;63.7
81140;SHT31;70624;51.978;5.656;2023-06-22T12:30:04;25.3;62.5
81140;SHT31;70624;51.978;5.656;2023-06-22T12:32:35;25.2;63.3
81140;SHT31;70624;51.978;5.656;2023-06-22T12:35:04;25.1;64.9
81140;SHT31;70624;51.978;5.656;2023-06-22T12:37:37;25.0;63.9
81140;SHT31;70624;51.978;5.656;2023-06-22T12:40:07;25.0;65.8
81140;SHT31;70624;51.978;5.656;2023-06-22T12:42:35;24.9;66.2
81140;SHT31;70624;51.978;5.656;2023-06-22T12:45:05;24.9;64.8
81140;SHT31;70624;51.978;5.656;2023-06-22T12:47:34;24.8;66.1
81140;SHT31;70624;51.978;5.656;2023-06-22T12:50:03;24.8;66.9
81140;SHT31;70624;51.978;5.656;2023-06-22T12:52:32;24.7;69.1
81140;SHT31;70624;51.978;5.656;2023-06-22T12:55:00;24.6;69.2
81140;SHT31;70624;51.978;5.656;2023-06-22T12:57:28;24.6;67.9
81140;SHT31;70624;51.978;5.656;2023-06-22T12:59:57;24.5;68.1
81140;SHT31;70624;51.978;5.656;2023-06-22T13:02:27;24.5;70.8
81140;SHT31;70624;51.978;5.656;2023-06-22T13:04:55;24.3;72.0
81140;SHT31;70624;51.978;5.656;2023-06-22T13:07:24;24.1;70.6
81140;SHT31;70624;51.978;5.656;2023-06-22T13:09:52;23.8;71.6
81140;SHT31;70624;51.978;5.656;2023-06-22T13:12:21;23.5;73.6
81140;SHT31;70624;51.978;5.656;2023-06-22T13:14:50;23.2;73.8
81140;SHT31;70624;51.978;5.656;2023-06-22T13:17:18;22.9;73.3
81140;SHT31;70624;51.978;5.656;2023-06-22T13:19:46;22.8;77.9
81140;SHT31;70624;51.978;5.656;2023-06-22T13:22:29;22.7;80.0
81140;SHT31;70624;51.978;5.656;2023-06-22T13:24:59;22.7;79.1
81140;SHT31;70624;51.978;5.656;2023-06-22T13:27:28;22.7;79.1
81140;SHT31;70624;51.978;5.656;2023-06-22T13:29:57;22.7;79.6
81140;SHT31;70624;51.978;5.656;2023-06-22T13:32:25;22.7;80.2
81140;SHT31;70624;51.978;5.656;2023-06-22T13:34:54;22.7;78.9
81140;SHT31;70624;51.978;5.656;2023-06-22T13:37:23;22.7;79.2
81140;SHT31;70624;51.978;5.656;2023-06-22T13:39:51;22.7;80.7
81140;SHT31;70624;51.978;5.656;2023-06-22T13:42:22;22.8;80.3
81140;SHT31;70624;51.978;5.656;2023-06-22T13:44:50;22.8;77.6
81140;SHT31;70624;51.978;5.656;2023-06-22T13:47:19;22.8;78.3
81140;SHT31;70624;51.978;5.656;2023-06-22T13:49:47;22.8;77.8
81140;SHT31;70624;51.978;5.656;2023-06-22T13:52:16;22.8;78.5
81140;SHT31;70624;51.978;5.656;2023-06-22T13:54:44;22.8;78.2
81140;SHT31;70624;51.978;5.656;2023-06-22T13:57:13;22.8;77.7
81140;SHT31;70624;51.978;5.656;2023-06-22T13:59:41;22.8;77.7
81140;SHT31;70624;51.978;5.656;2023-06-22T14:02:10;22.8;78.6
81140;SHT31;70624;51.978;5.656;2023-06-22T14:04:40;22.8;78.3
81140;SHT31;70624;51.978;5.656;2023-06-22T14:07:09;22.7;76.2
81140;SHT31;70624;51.978;5.656;2023-06-22T14:09:37;22.5;78.0
81140;SHT31;70624;51.978;5.656;2023-06-22T14:12:07;22.2;78.7
81140;SHT31;70624;51.978;5.656;2023-06-22T14:14:36;22.0;80.2
81140;SHT31;70624;51.978;5.656;2023-06-22T14:17:05;21.8;79.9
81140;SHT31;70624;51.978;5.656;2023-06-22T14:19:34;21.6;81.6
81140;SHT31;70624;51.978;5.656;2023-06-22T14:22:02;21.4;81.7
81140;SHT31;70624;51.978;5.656;2023-06-22T14:24:31;21.2;83.4
81140;SHT31;70624;51.978;5.656;2023-06-22T14:27:00;21.1;83.4
81140;SHT31;70624;51.978;5.656;2023-06-22T14:29:29;21.0;83.5
81140;SHT31;70624;51.978;5.656;2023-06-22T14:32:01;20.9;84.5
81140;SHT31;70624;51.978;5.656;2023-06-22T14:34:30;20.8;84.5
81140;SHT31;70624;51.978;5.656;2023-06-22T14:36:59;20.8;85.4
81140;SHT31;70624;51.978;5.656;2023-06-22T14:39:28;20.7;85.4
81140;SHT31;70624;51.978;5.656;2023-06-22T14:41:56;20.7;86.0
81140;SHT31;70624;51.978;5.656;2023-06-22T14:44:27;20.7;85.8
81140;SHT31;70624;51.978;5.656;2023-06-22T14:46:56;20.7;85.2
81140;SHT31;70624;51.978;5.656;2023-06-22T14:49:25;20.7;84.0
81140;SHT31;70624;51.978;5.656;2023-06-22T14:51:53;20.6;84.2
81140;SHT31;70624;51.978;5.656;2023-06-22T14:54:22;20.5;84.1
81140;SHT31;70624;51.978;5.656;2023-06-22T14:56:50;20.5;84.5
81140;SHT31;70624;51.978;5.656;2023-06-22T14:59:19;20.4;84.4
81140;SHT31;70624;51.978;5.656;2023-06-22T15:01:47;20.3;85.9
81140;SHT31;70624;51.978;5.656;2023-06-22T15:04:16;20.3;86.2
81140;SHT31;70624;51.978;5.656;2023-06-22T15:06:44;20.2;86.9
81140;SHT31;70624;51.978;5.656;2023-06-22T15:09:13;20.2;87.5
81140;SHT31;70624;51.978;5.656;2023-06-22T15:11:42;20.2;88.0
81140;SHT31;70624;51.978;5.656;2023-06-22T15:14:10;20.2;88.6
81140;SHT31;70624;51.978;5.656;2023-06-22T15:16:41;20.3;87.9
81140;SHT31;70624;51.978;5.656;2023-06-22T15:19:10;20.3;88.7
81140;SHT31;70624;51.978;5.656;2023-06-22T15:21:39;20.4;88.6
81140;SHT31;70624;51.978;5.656;2023-06-22T15:24:07;20.4;88.5
81140;SHT31;70624;51.978;5.656;2023-06-22T15:26:36;20.5;87.9
81140;SHT31;70624;51.978;5.656;2023-06-22T15:29:05;20.6;88.4
81140;SHT31;70624;51.978;5.656;2023-06-22T15:31:34;20.6;88.5
81140;SHT31;70624;51.978;5.656;2023-06-22T15:34:02;20.6;87.0
81140;SHT31;70624;51.978;5.656;2023-06-22T15:36:31;20.7;86.6
81140;SHT31;70624;51.978;5.656;2023-06-22T15:39:00;20.7;86.9
81140;SHT31;70624;51.978;5.656;2023-06-22T15:41:28;20.7;86.5
81140;SHT31;70624;51.978;5.656;2023-06-22T15:43:57;20.8;86.6
81140;SHT31;70624;51.978;5.656;2023-06-22T15:46:25;20.8;85.8
81140;SHT31;70624;51.978;5.656;2023-06-22T15:48:54;20.9;85.3
81140;SHT31;70624;51.978;5.656;2023-06-22T15:51:22;20.9;85.4
81140;SHT31;70624;51.978;5.656;2023-06-22T15:53:51;20.9;85.3
81140;SHT31;70624;51.978;5.656;2023-06-22T15:56:20;20.9;85.5
81140;SHT31;70624;51.978;5.656;2023-06-22T15:58:51;20.9;85.3
81140;SHT31;70624;51.978;5.656;2023-06-22T16:01:20;20.8;85.0
81140;SHT31;70624;51.978;5.656;2023-06-22T16:03:49;20.8;86.2
81140;SHT31;70624;51.978;5.656;2023-06-22T16:06:18;20.8;86.4
81140;SHT31;70624;51.978;5.656;2023-06-22T16:08:46;20.8;86.5
81140;SHT31;70624;51.978;5.656;2023-06-22T16:11:15;20.8;86.8
81140;SHT31;70624;51.978;5.656;2023-06-22T16:13:43;20.9;86.9
81140;SHT31;70624;51.978;5.656;2023-06-22T16:16:12;20.9;87.0
81140;SHT31;70624;51.978;5.656;2023-06-22T16:18:42;20.9;86.8
81140;SHT31;70624;51.978;5.656;2023-06-22T16:21:11;20.9;87.1
81140;SHT31;70624;51.978;5.656;2023-06-22T16:23:40;21.0;86.8
81140;SHT31;70624;51.978;5.656;2023-06-22T16:26:11;21.0;86.6
81140;SHT31;70624;51.978;5.656;2023-06-22T16:28:39;21.0;86.6
81140;SHT31;70624;51.978;5.656;2023-06-22T16:31:08;21.0;86.2
81140;SHT31;70624;51.978;5.656;2023-06-22T16:33:36;21.0;85.1
81140;SHT31;70624;51.978;5.656;2023-06-22T16:36:05;21.0;84.9
81140;SHT31;70624;51.978;5.656;2023-06-22T16:38:34;20.9;84.2